createdAt,value
2022-11-16T00:00:06.627Z,98429.31
2022-11-16T00:00:38.057Z,98429.31
2022-11-16T00:01:09.513Z,98432.03
2022-11-16T00:01:41.025Z,98432.84
2022-11-16T00:02:12.701Z,98430.13
2022-11-16T00:02:44.177Z,98428.53
2022-11-16T00:03:15.613Z,98427.72
2022-11-16T00:03:47.059Z,98425.31
2022-11-16T00:04:18.481Z,98431.25
2022-11-16T00:04:49.867Z,98429.31
2022-11-16T00:05:27.053Z,98431.25
2022-11-16T00:05:59.773Z,98434.78
2022-11-16T00:06:31.217Z,98432.38
2022-11-16T00:07:02.855Z,98432.38
2022-11-16T00:07:34.443Z,98432.38
2022-11-16T00:08:05.914Z,98431.25
2022-11-16T00:08:37.317Z,98432.03
2022-11-16T00:09:08.775Z,98427.72
2022-11-16T00:09:40.174Z,98427.72
2022-11-16T00:10:11.640Z,98426.91
2022-11-16T00:10:43.055Z,98428.53
2022-11-16T00:11:14.571Z,98426.91
2022-11-16T00:11:45.988Z,98423.41
2022-11-16T00:12:17.404Z,98421.47
2022-11-16T00:12:48.924Z,98425.00
2022-11-16T00:13:20.338Z,98431.25
2022-11-16T00:13:51.846Z,98425.00
2022-11-16T00:14:23.367Z,98417.94
2022-11-16T00:14:54.896Z,98418.41
2022-11-16T00:15:26.273Z,98421.13
2022-11-16T00:15:57.680Z,98415.69
2022-11-16T00:16:29.094Z,98414.88
2022-11-16T00:17:00.503Z,98418.41
2022-11-16T00:17:34.119Z,98420.34
2022-11-16T00:18:05.570Z,98412.16
2022-11-16T00:18:37.009Z,98412.97
2022-11-16T00:19:08.425Z,98417.63
2022-11-16T00:19:39.845Z,98414.88
2022-11-16T00:20:11.239Z,98414.09
2022-11-16T00:20:42.644Z,98415.22
2022-11-16T00:21:14.059Z,98412.50
2022-11-16T00:21:45.419Z,98416.81
2022-11-16T00:22:16.845Z,98411.38
2022-11-16T00:22:48.292Z,98411.69
2022-11-16T00:23:19.639Z,98417.13
2022-11-16T00:23:51.064Z,98414.41
2022-11-16T00:24:22.569Z,98413.28
2022-11-16T00:24:53.982Z,98419.53
2022-11-16T00:25:25.467Z,98415.22
2022-11-16T00:25:56.906Z,98412.50
2022-11-16T00:26:28.368Z,98403.50
2022-11-16T00:26:59.804Z,98409.75
2022-11-16T00:27:31.210Z,98415.22
2022-11-16T00:28:02.670Z,98405.91
2022-11-16T00:28:34.489Z,98411.38
2022-11-16T00:29:06.093Z,98409.44
2022-11-16T00:29:37.518Z,98404.78
2022-11-16T00:30:08.917Z,98405.91
2022-11-16T00:30:40.359Z,98400.00
2022-11-16T00:31:11.875Z,98405.13
2022-11-16T00:31:43.272Z,98400.47
2022-11-16T00:32:14.677Z,98400.47
2022-11-16T00:32:46.085Z,98397.75
2022-11-16T00:33:17.507Z,98398.53
2022-11-16T00:33:48.944Z,98400.47
2022-11-16T00:34:20.318Z,98407.03
2022-11-16T00:34:51.717Z,98401.59
2022-11-16T00:35:23.162Z,98401.59
2022-11-16T00:35:54.591Z,98406.72
2022-11-16T00:36:26.148Z,98392.63
2022-11-16T00:36:57.560Z,98388.75
2022-11-16T00:37:29.151Z,98397.75
2022-11-16T00:38:00.527Z,98395.00
2022-11-16T00:38:32.194Z,98398.06
2022-11-16T00:39:03.925Z,98395.34
2022-11-16T00:39:35.432Z,98393.41
2022-11-16T00:40:06.824Z,98394.22
2022-11-16T00:40:38.286Z,98391.50
2022-11-16T00:41:09.732Z,98396.94
2022-11-16T00:41:41.162Z,98396.94
2022-11-16T00:42:12.568Z,98394.22
2022-11-16T00:42:43.989Z,98395.00
2022-11-16T00:43:16.700Z,98386.03
2022-11-16T00:43:48.118Z,98392.28
2022-11-16T00:44:19.521Z,98394.22
2022-11-16T00:44:50.929Z,98395.00
2022-11-16T00:45:22.391Z,98386.03
2022-11-16T00:45:53.809Z,98394.22
2022-11-16T00:46:25.265Z,98384.91
2022-11-16T00:46:56.757Z,98390.34
2022-11-16T00:47:28.172Z,98386.84
2022-11-16T00:48:00.789Z,98390.34
2022-11-16T00:48:32.682Z,98394.22
2022-11-16T00:49:04.293Z,98392.63
2022-11-16T00:49:35.771Z,98394.22
2022-11-16T00:50:07.150Z,98397.75
2022-11-16T00:50:38.568Z,98386.84
2022-11-16T00:51:09.955Z,98393.41
2022-11-16T00:51:41.354Z,98386.84
2022-11-16T00:52:12.769Z,98390.69
2022-11-16T00:52:44.192Z,98390.69
2022-11-16T00:53:15.607Z,98390.69
2022-11-16T00:53:47.068Z,98386.03
2022-11-16T00:54:18.484Z,98384.09
2022-11-16T00:54:49.962Z,98386.84
2022-11-16T00:55:21.361Z,98386.50
2022-11-16T00:55:52.781Z,98387.63
2022-11-16T00:56:24.241Z,98386.84
2022-11-16T00:56:55.765Z,98384.09
2022-11-16T00:57:27.267Z,98394.22
2022-11-16T00:57:58.674Z,98389.56
2022-11-16T00:58:30.170Z,98380.59
2022-11-16T00:59:01.714Z,98387.63
2022-11-16T00:59:33.141Z,98386.03
2022-11-16T01:00:07.274Z,98390.69
2022-11-16T01:00:38.681Z,98390.34
2022-11-16T01:01:10.148Z,98382.97
2022-11-16T01:01:41.683Z,98385.72
2022-11-16T01:02:13.135Z,98386.50
2022-11-16T01:02:44.571Z,98383.78
2022-11-16T01:03:15.948Z,98380.25
2022-11-16T01:03:47.362Z,98382.97
2022-11-16T01:04:18.849Z,98377.53
2022-11-16T01:04:50.281Z,98381.84
2022-11-16T01:05:21.770Z,98381.06
2022-11-16T01:05:53.191Z,98383.78
2022-11-16T01:06:24.629Z,98379.13
2022-11-16T01:06:56.124Z,98378.34
2022-11-16T01:07:27.646Z,98379.94
2022-11-16T01:07:59.088Z,98382.66
2022-11-16T01:08:30.608Z,98379.94
2022-11-16T01:09:02.461Z,98380.25
2022-11-16T01:09:33.938Z,98377.19
2022-11-16T01:10:05.354Z,98381.84
2022-11-16T01:10:36.780Z,98381.84
2022-11-16T01:11:08.199Z,98381.84
2022-11-16T01:11:39.599Z,98382.66
2022-11-16T01:12:11.008Z,98379.13
2022-11-16T01:12:42.401Z,98377.19
2022-11-16T01:13:13.833Z,98378.00
2022-11-16T01:13:45.508Z,98376.06
2022-11-16T01:14:16.903Z,98379.13
2022-11-16T01:14:48.326Z,98372.56
2022-11-16T01:15:19.712Z,98376.06
2022-11-16T01:15:51.150Z,98377.19
2022-11-16T01:16:22.567Z,98371.75
2022-11-16T01:16:54.032Z,98379.94
2022-11-16T01:17:25.599Z,98370.97
2022-11-16T01:17:56.988Z,98371.75
2022-11-16T01:18:28.407Z,98379.13
2022-11-16T01:18:59.808Z,98372.09
2022-11-16T01:19:31.212Z,98371.28
2022-11-16T01:20:02.650Z,98374.81
2022-11-16T01:20:34.119Z,98375.59
2022-11-16T01:21:05.504Z,98368.22
2022-11-16T01:21:36.943Z,98368.22
2022-11-16T01:22:08.382Z,98373.69
2022-11-16T01:22:39.820Z,98367.44
2022-11-16T01:23:11.255Z,98370.97
2022-11-16T01:23:42.667Z,98371.75
2022-11-16T01:24:14.162Z,98370.16
2022-11-16T01:24:45.564Z,98370.16
2022-11-16T01:25:17.057Z,98368.22
2022-11-16T01:25:48.487Z,98362.78
2022-11-16T01:26:19.962Z,98362.78
2022-11-16T01:26:51.360Z,98377.19
2022-11-16T01:27:22.765Z,98370.16
2022-11-16T01:27:54.203Z,98363.56
2022-11-16T01:28:25.646Z,98366.31
2022-11-16T01:28:57.028Z,98366.31
2022-11-16T01:29:28.434Z,98367.44
2022-11-16T01:29:59.824Z,98370.97
2022-11-16T01:30:31.290Z,98371.28
2022-11-16T01:31:02.680Z,98364.69
2022-11-16T01:31:34.105Z,98368.22
2022-11-16T01:32:05.524Z,98371.28
2022-11-16T01:32:36.904Z,98365.03
2022-11-16T01:33:08.395Z,98366.16
2022-11-16T01:33:39.742Z,98362.31
2022-11-16T01:34:11.166Z,98364.69
2022-11-16T01:34:42.559Z,98369.34
2022-11-16T01:35:14.165Z,98364.69
2022-11-16T01:35:45.596Z,98362.78
2022-11-16T01:36:17.062Z,98361.97
2022-11-16T01:36:48.493Z,98364.69
2022-11-16T01:37:19.866Z,98361.19
2022-11-16T01:37:51.329Z,98363.91
2022-11-16T01:38:27.122Z,98359.25
2022-11-16T01:39:00.900Z,98360.06
2022-11-16T01:39:32.327Z,98356.53
2022-11-16T01:40:03.815Z,98358.94
2022-11-16T01:40:35.240Z,98361.97
2022-11-16T01:41:06.699Z,98359.59
2022-11-16T01:41:38.226Z,98353.81
2022-11-16T01:42:09.659Z,98360.06
2022-11-16T01:42:41.125Z,98354.59
2022-11-16T01:43:12.538Z,98353.00
2022-11-16T01:43:43.999Z,98353.81
2022-11-16T01:44:15.386Z,98353.00
2022-11-16T01:44:46.871Z,98356.84
2022-11-16T01:45:18.298Z,98349.47
2022-11-16T01:45:49.704Z,98357.66
2022-11-16T01:46:21.151Z,98357.66
2022-11-16T01:46:52.531Z,98353.00
2022-11-16T01:47:23.957Z,98350.28
2022-11-16T01:47:55.456Z,98354.94
2022-11-16T01:48:27.032Z,98351.41
2022-11-16T01:48:58.561Z,98350.59
2022-11-16T01:49:29.979Z,98350.59
2022-11-16T01:50:01.399Z,98353.00
2022-11-16T01:50:32.760Z,98345.94
2022-11-16T01:51:04.169Z,98352.19
2022-11-16T01:51:35.614Z,98353.81
2022-11-16T01:52:06.979Z,98356.53
2022-11-16T01:52:38.417Z,98351.88
2022-11-16T01:53:09.840Z,98350.28
2022-11-16T01:53:41.252Z,98347.56
2022-11-16T01:54:12.759Z,98349.16
2022-11-16T01:54:44.167Z,98351.06
2022-11-16T01:55:15.651Z,98352.19
2022-11-16T01:55:47.083Z,98344.03
2022-11-16T01:56:18.534Z,98352.19
2022-11-16T01:56:49.970Z,98340.50
2022-11-16T01:57:21.413Z,98342.09
2022-11-16T01:57:52.848Z,98344.81
2022-11-16T01:58:24.259Z,98340.97
2022-11-16T01:58:55.647Z,98347.56
2022-11-16T01:59:27.073Z,98349.47
2022-11-16T01:59:58.530Z,98340.50
2022-11-16T02:00:29.945Z,98339.38
2022-11-16T02:01:01.398Z,98341.31
2022-11-16T02:01:32.869Z,98338.25
2022-11-16T02:02:04.328Z,98333.94
2022-11-16T02:02:35.781Z,98340.19
2022-11-16T02:03:07.221Z,98337.44
2022-11-16T02:03:38.617Z,98336.66
2022-11-16T02:04:10.084Z,98341.31
2022-11-16T02:04:41.498Z,98338.25
2022-11-16T02:05:12.870Z,98339.38
2022-11-16T02:05:44.301Z,98339.38
2022-11-16T02:06:15.685Z,98336.66
2022-11-16T02:06:47.122Z,98336.66
2022-11-16T02:07:18.706Z,98340.19
2022-11-16T02:07:50.141Z,98333.13
2022-11-16T02:08:21.595Z,98330.41
2022-11-16T02:08:53.023Z,98339.38
2022-11-16T02:09:24.466Z,98336.66
2022-11-16T02:09:55.908Z,98331.19
2022-11-16T02:10:27.331Z,98330.41
2022-11-16T02:10:58.894Z,98328.47
2022-11-16T02:11:30.362Z,98331.19
2022-11-16T02:12:01.781Z,98333.59
2022-11-16T02:12:33.162Z,98328.47
2022-11-16T02:13:04.690Z,98329.28
2022-11-16T02:13:36.067Z,98338.56
2022-11-16T02:14:07.475Z,98331.19
2022-11-16T02:14:39.007Z,98332.78
2022-11-16T02:15:10.476Z,98332.78
2022-11-16T02:15:41.912Z,98333.59
2022-11-16T02:16:13.364Z,98321.91
2022-11-16T02:16:44.770Z,98329.28
2022-11-16T02:17:16.198Z,98322.22
2022-11-16T02:17:47.593Z,98324.16
2022-11-16T02:18:19.021Z,98324.16
2022-11-16T02:18:50.435Z,98324.16
2022-11-16T02:19:21.972Z,98324.16
2022-11-16T02:19:53.415Z,98323.03
2022-11-16T02:20:24.960Z,98320.28
2022-11-16T02:20:56.508Z,98320.28
2022-11-16T02:21:27.956Z,98320.28
2022-11-16T02:21:59.336Z,98325.75
2022-11-16T02:22:30.783Z,98315.97
2022-11-16T02:23:02.380Z,98321.41
2022-11-16T02:23:33.780Z,98316.44
2022-11-16T02:24:05.252Z,98318.69
2022-11-16T02:24:36.685Z,98314.84
2022-11-16T02:25:08.084Z,98319.50
2022-11-16T02:25:39.554Z,98314.84
2022-11-16T02:26:11.009Z,98314.84
2022-11-16T02:26:42.408Z,98315.97
2022-11-16T02:27:13.821Z,98312.44
2022-11-16T02:27:45.259Z,98318.69
2022-11-16T02:28:16.658Z,98322.22
2022-11-16T02:28:48.083Z,98314.03
2022-11-16T02:29:19.525Z,98317.56
2022-11-16T02:29:50.940Z,98309.41
2022-11-16T02:30:22.436Z,98317.56
2022-11-16T02:30:53.889Z,98315.66
2022-11-16T02:31:25.306Z,98314.03
2022-11-16T02:31:56.766Z,98320.28
2022-11-16T02:32:28.151Z,98315.97
2022-11-16T02:32:59.565Z,98316.78
2022-11-16T02:33:30.933Z,98318.38
2022-11-16T02:34:02.384Z,98311.31
2022-11-16T02:34:33.799Z,98324.16
2022-11-16T02:35:05.207Z,98310.53
2022-11-16T02:35:36.601Z,98315.97
2022-11-16T02:36:08.061Z,98307.78
2022-11-16T02:36:39.495Z,98299.63
2022-11-16T02:37:10.966Z,98308.59
2022-11-16T02:37:42.404Z,98310.53
2022-11-16T02:38:13.807Z,98308.94
2022-11-16T02:38:45.337Z,98309.41
2022-11-16T02:39:16.707Z,98305.88
2022-11-16T02:39:48.185Z,98307.78
2022-11-16T02:40:19.577Z,98313.25
2022-11-16T02:40:50.968Z,98307.00
2022-11-16T02:41:22.426Z,98306.19
2022-11-16T02:41:53.833Z,98311.66
2022-11-16T02:42:25.250Z,98306.19
2022-11-16T02:42:56.680Z,98306.19
2022-11-16T02:43:28.080Z,98304.28
2022-11-16T02:43:59.468Z,98307.78
2022-11-16T02:44:30.912Z,98309.72
2022-11-16T02:45:05.413Z,98308.13
2022-11-16T02:45:36.809Z,98301.53
2022-11-16T02:46:08.254Z,98307.78
2022-11-16T02:46:39.751Z,98307.78
2022-11-16T02:47:11.200Z,98302.34
2022-11-16T02:47:42.714Z,98304.28
2022-11-16T02:48:14.158Z,98307.78
2022-11-16T02:48:45.628Z,98307.00
2022-11-16T02:49:17.033Z,98302.34
2022-11-16T02:49:48.608Z,98309.41
2022-11-16T02:50:20.000Z,98309.41
2022-11-16T02:50:51.430Z,98304.28
2022-11-16T02:51:22.835Z,98314.38
2022-11-16T02:51:54.249Z,98310.84
2022-11-16T02:52:25.683Z,98308.13
2022-11-16T02:52:57.073Z,98308.94
2022-11-16T02:53:28.548Z,98311.66
2022-11-16T02:53:59.981Z,98305.41
2022-11-16T02:54:31.383Z,98306.19
2022-11-16T02:55:02.781Z,98307.00
2022-11-16T02:55:34.214Z,98315.97
2022-11-16T02:56:05.669Z,98306.66
2022-11-16T02:56:37.121Z,98306.19
2022-11-16T02:57:08.529Z,98306.19
2022-11-16T02:57:39.922Z,98311.00
2022-11-16T02:58:11.383Z,98307.78
2022-11-16T02:58:42.863Z,98310.53
2022-11-16T02:59:17.400Z,98309.72
2022-11-16T02:59:49.002Z,98313.25
2022-11-16T03:00:20.424Z,98310.84
2022-11-16T03:00:51.934Z,98317.09
2022-11-16T03:01:23.467Z,98314.38
2022-11-16T03:01:55.025Z,98319.81
2022-11-16T03:02:26.416Z,98314.38
2022-11-16T03:02:57.842Z,98318.69
2022-11-16T03:03:29.233Z,98320.28
2022-11-16T03:04:00.622Z,98315.97
2022-11-16T03:04:32.003Z,98315.19
2022-11-16T03:05:03.519Z,98314.03
2022-11-16T03:05:34.934Z,98318.69
2022-11-16T03:06:06.342Z,98315.19
2022-11-16T03:06:37.863Z,98312.44
2022-11-16T03:07:09.300Z,98311.31
2022-11-16T03:07:40.831Z,98309.72
2022-11-16T03:08:12.244Z,98310.06
2022-11-16T03:08:43.770Z,98311.66
2022-11-16T03:09:15.179Z,98321.75
2022-11-16T03:09:46.587Z,98317.09
2022-11-16T03:10:17.963Z,98321.41
2022-11-16T03:10:49.360Z,98322.56
2022-11-16T03:11:20.741Z,98316.31
2022-11-16T03:11:52.178Z,98313.25
2022-11-16T03:12:23.595Z,98317.09
2022-11-16T03:12:55.044Z,98318.69
2022-11-16T03:13:26.431Z,98315.97
2022-11-16T03:13:57.899Z,98303.47
2022-11-16T03:14:29.375Z,98309.72
2022-11-16T03:15:03.630Z,98312.78
2022-11-16T03:15:37.972Z,98309.72
2022-11-16T03:16:09.398Z,98308.13
2022-11-16T03:16:40.817Z,98310.53
2022-11-16T03:17:12.203Z,98310.84
2022-11-16T03:17:43.589Z,98312.44
2022-11-16T03:18:15.071Z,98311.66
2022-11-16T03:18:46.465Z,98312.44
2022-11-16T03:19:17.962Z,98307.00
2022-11-16T03:19:49.447Z,98313.56
2022-11-16T03:20:20.878Z,98314.38
2022-11-16T03:20:52.278Z,98314.38
2022-11-16T03:21:23.744Z,98318.22
2022-11-16T03:21:55.143Z,98313.56
2022-11-16T03:22:26.594Z,98316.78
2022-11-16T03:22:58.004Z,98314.38
2022-11-16T03:23:29.443Z,98319.81
2022-11-16T03:24:00.845Z,98320.63
2022-11-16T03:24:32.305Z,98317.09
2022-11-16T03:25:03.728Z,98324.16
2022-11-16T03:25:35.127Z,98322.56
2022-11-16T03:26:06.529Z,98319.81
2022-11-16T03:26:37.978Z,98322.56
2022-11-16T03:27:09.367Z,98321.41
2022-11-16T03:27:40.878Z,98326.88
2022-11-16T03:28:12.287Z,98317.91
2022-11-16T03:28:43.740Z,98316.31
2022-11-16T03:29:15.190Z,98320.63
2022-11-16T03:29:46.707Z,98320.63
2022-11-16T03:30:23.181Z,98323.34
2022-11-16T03:30:55.065Z,98322.22
2022-11-16T03:31:26.576Z,98324.94
2022-11-16T03:31:57.974Z,98324.16
2022-11-16T03:32:29.410Z,98320.63
2022-11-16T03:33:00.814Z,98322.22
2022-11-16T03:33:32.173Z,98320.28
2022-11-16T03:34:03.602Z,98316.78
2022-11-16T03:34:35.061Z,98324.94
2022-11-16T03:35:06.579Z,98320.63
2022-11-16T03:35:38.009Z,98318.69
2022-11-16T03:36:09.656Z,98315.19
2022-11-16T03:36:41.079Z,98312.44
2022-11-16T03:37:12.540Z,98317.09
2022-11-16T03:37:43.974Z,98313.25
2022-11-16T03:38:15.416Z,98316.31
2022-11-16T03:38:46.856Z,98308.59
2022-11-16T03:39:18.302Z,98313.25
2022-11-16T03:39:49.727Z,98313.25
2022-11-16T03:40:21.168Z,98312.13
2022-11-16T03:40:52.578Z,98318.69
2022-11-16T03:41:23.932Z,98305.06
2022-11-16T03:41:55.297Z,98303.16
2022-11-16T03:42:26.721Z,98303.16
2022-11-16T03:42:58.134Z,98310.53
2022-11-16T03:43:29.600Z,98307.78
2022-11-16T03:44:01.130Z,98307.78
2022-11-16T03:44:32.568Z,98312.44
2022-11-16T03:45:04.115Z,98305.88
2022-11-16T03:45:35.591Z,98313.25
2022-11-16T03:46:07.033Z,98301.53
2022-11-16T03:46:38.450Z,98302.34
2022-11-16T03:47:09.853Z,98306.19
2022-11-16T03:47:41.464Z,98301.53
2022-11-16T03:48:12.879Z,98300.75
2022-11-16T03:48:44.241Z,98306.19
2022-11-16T03:49:15.664Z,98307.78
2022-11-16T03:49:47.038Z,98300.75
2022-11-16T03:50:18.452Z,98302.34
2022-11-16T03:50:49.954Z,98294.16
2022-11-16T03:51:21.430Z,98296.09
2022-11-16T03:51:52.849Z,98293.03
2022-11-16T03:52:24.315Z,98294.97
2022-11-16T03:52:55.695Z,98293.03
2022-11-16T03:53:27.076Z,98301.22
2022-11-16T03:53:58.557Z,98291.44
2022-11-16T03:54:29.961Z,98292.25
2022-11-16T03:55:01.426Z,98294.16
2022-11-16T03:55:32.835Z,98291.44
2022-11-16T03:56:04.375Z,98291.44
2022-11-16T03:56:35.837Z,98292.25
2022-11-16T03:57:07.250Z,98301.22
2022-11-16T03:57:38.669Z,98293.03
2022-11-16T03:58:10.057Z,98291.91
2022-11-16T03:58:41.475Z,98292.72
2022-11-16T03:59:12.934Z,98282.13
2022-11-16T03:59:44.351Z,98292.25
2022-11-16T04:00:15.773Z,98286.78
2022-11-16T04:00:47.236Z,98289.19
2022-11-16T04:01:18.864Z,98285.34
2022-11-16T04:01:50.250Z,98281.81
2022-11-16T04:02:21.701Z,98281.00
2022-11-16T04:02:53.148Z,98280.22
2022-11-16T04:03:24.588Z,98281.00
2022-11-16T04:03:56.235Z,98277.50
2022-11-16T04:04:27.849Z,98272.03
2022-11-16T04:04:59.200Z,98282.94
2022-11-16T04:05:30.584Z,98277.50
2022-11-16T04:06:02.146Z,98282.94
2022-11-16T04:06:33.738Z,98282.94
2022-11-16T04:07:05.277Z,98274.75
2022-11-16T04:07:36.709Z,98280.22
2022-11-16T04:08:08.205Z,98279.41
2022-11-16T04:08:39.617Z,98278.28
2022-11-16T04:09:11.076Z,98279.88
2022-11-16T04:09:42.484Z,98279.41
2022-11-16T04:10:13.890Z,98278.63
2022-11-16T04:10:45.337Z,98271.25
2022-11-16T04:11:16.806Z,98278.28
2022-11-16T04:11:48.320Z,98272.38
2022-11-16T04:12:19.752Z,98277.50
2022-11-16T04:12:51.170Z,98278.28
2022-11-16T04:13:22.606Z,98279.41
2022-11-16T04:13:54.049Z,98281.00
2022-11-16T04:14:25.509Z,98285.66
2022-11-16T04:14:56.926Z,98282.59
2022-11-16T04:15:28.445Z,98278.28
2022-11-16T04:15:59.867Z,98278.28
2022-11-16T04:16:31.258Z,98285.66
2022-11-16T04:17:05.906Z,98284.88
2022-11-16T04:17:37.312Z,98286.47
2022-11-16T04:18:08.793Z,98289.97
2022-11-16T04:18:40.191Z,98282.94
2022-11-16T04:19:11.594Z,98287.59
2022-11-16T04:19:43.014Z,98291.13
2022-11-16T04:20:14.428Z,98298.16
2022-11-16T04:20:45.844Z,98293.03
2022-11-16T04:21:17.297Z,98296.91
2022-11-16T04:21:48.792Z,98303.94
2022-11-16T04:22:20.319Z,98303.94
2022-11-16T04:22:51.732Z,98303.16
2022-11-16T04:23:23.191Z,98301.22
2022-11-16T04:23:54.625Z,98307.47
2022-11-16T04:24:26.041Z,98302.00
2022-11-16T04:24:57.436Z,98304.75
2022-11-16T04:25:28.864Z,98305.53
2022-11-16T04:26:00.321Z,98311.31
2022-11-16T04:26:31.737Z,98310.53
2022-11-16T04:27:03.148Z,98311.31
2022-11-16T04:27:34.596Z,98313.25
2022-11-16T04:28:06.019Z,98312.91
2022-11-16T04:28:37.742Z,98314.84
2022-11-16T04:29:09.628Z,98308.59
2022-11-16T04:29:41.043Z,98314.84
2022-11-16T04:30:12.531Z,98315.66
2022-11-16T04:30:43.910Z,98315.19
2022-11-16T04:31:15.383Z,98315.66
2022-11-16T04:31:46.817Z,98310.53
2022-11-16T04:32:18.240Z,98311.31
2022-11-16T04:32:49.829Z,98311.31
2022-11-16T04:33:21.351Z,98311.31
2022-11-16T04:33:52.825Z,98315.19
2022-11-16T04:34:24.255Z,98313.25
2022-11-16T04:34:55.676Z,98312.44
2022-11-16T04:35:27.088Z,98317.91
2022-11-16T04:35:58.502Z,98314.03
2022-11-16T04:36:29.920Z,98310.53
2022-11-16T04:37:01.357Z,98313.25
2022-11-16T04:37:32.836Z,98307.78
2022-11-16T04:38:04.333Z,98314.84
2022-11-16T04:38:35.939Z,98307.78
2022-11-16T04:39:07.579Z,98313.25
2022-11-16T04:39:39.021Z,98313.25
2022-11-16T04:40:10.434Z,98309.41
2022-11-16T04:40:41.870Z,98303.16
2022-11-16T04:41:13.321Z,98303.94
2022-11-16T04:41:44.735Z,98303.94
2022-11-16T04:42:16.219Z,98298.50
2022-11-16T04:42:47.600Z,98303.94
2022-11-16T04:43:19.032Z,98298.50
2022-11-16T04:43:50.430Z,98303.94
2022-11-16T04:44:25.924Z,98305.53
2022-11-16T04:45:00.355Z,98297.69
2022-11-16T04:45:31.908Z,98301.22
2022-11-16T04:46:03.345Z,98303.94
2022-11-16T04:46:34.736Z,98305.06
2022-11-16T04:47:06.188Z,98299.63
2022-11-16T04:47:37.589Z,98303.94
2022-11-16T04:48:09.052Z,98301.22
2022-11-16T04:48:40.545Z,98303.16
2022-11-16T04:49:11.975Z,98307.78
2022-11-16T04:49:43.537Z,98315.19
2022-11-16T04:50:15.036Z,98304.28
2022-11-16T04:50:46.484Z,98309.41
2022-11-16T04:51:17.966Z,98316.78
2022-11-16T04:51:49.342Z,98314.03
2022-11-16T04:52:20.739Z,98313.25
2022-11-16T04:52:52.163Z,98308.59
2022-11-16T04:53:23.565Z,98319.50
2022-11-16T04:53:55.025Z,98312.13
2022-11-16T04:54:26.487Z,98310.53
2022-11-16T04:54:57.978Z,98310.53
2022-11-16T04:55:29.421Z,98318.69
2022-11-16T04:56:01.188Z,98312.44
2022-11-16T04:56:32.654Z,98308.94
2022-11-16T04:57:04.068Z,98310.53
2022-11-16T04:57:35.452Z,98315.19
2022-11-16T04:58:06.987Z,98310.53
2022-11-16T04:58:38.415Z,98315.19
2022-11-16T04:59:09.909Z,98307.31
2022-11-16T04:59:41.314Z,98307.31
2022-11-16T05:00:12.783Z,98310.84
2022-11-16T05:00:44.319Z,98307.00
2022-11-16T05:01:15.812Z,98311.66
2022-11-16T05:01:47.377Z,98313.56
2022-11-16T05:02:18.788Z,98306.19
2022-11-16T05:02:50.319Z,98311.66
2022-11-16T05:03:21.764Z,98307.00
2022-11-16T05:03:53.218Z,98311.66
2022-11-16T05:04:24.631Z,98308.94
2022-11-16T05:04:56.014Z,98310.84
2022-11-16T05:05:27.515Z,98306.19
2022-11-16T05:05:58.894Z,98314.38
2022-11-16T05:06:30.328Z,98310.84
2022-11-16T05:07:01.759Z,98311.66
2022-11-16T05:07:33.195Z,98320.94
2022-11-16T05:08:04.639Z,98313.56
2022-11-16T05:08:36.260Z,98320.94
2022-11-16T05:09:07.899Z,98318.22
2022-11-16T05:09:39.295Z,98320.63
2022-11-16T05:10:10.743Z,98319.03
2022-11-16T05:10:42.233Z,98326.06
2022-11-16T05:11:13.699Z,98325.28
2022-11-16T05:11:45.158Z,98322.56
2022-11-16T05:12:16.589Z,98328.81
2022-11-16T05:12:48.098Z,98325.28
2022-11-16T05:13:19.526Z,98328.00
2022-11-16T05:13:51.029Z,98331.84
2022-11-16T05:14:22.469Z,98322.56
2022-11-16T05:14:53.948Z,98326.06
2022-11-16T05:15:25.368Z,98317.91
2022-11-16T05:15:56.909Z,98325.28
2022-11-16T05:16:28.339Z,98319.34
2022-11-16T05:16:59.745Z,98328.00
2022-11-16T05:17:31.168Z,98324.47
2022-11-16T05:18:02.607Z,98320.16
2022-11-16T05:18:34.386Z,98317.09
2022-11-16T05:19:06.102Z,98316.31
2022-11-16T05:19:37.575Z,98316.31
2022-11-16T05:20:08.986Z,98319.81
2022-11-16T05:20:40.394Z,98325.28
2022-11-16T05:21:11.829Z,98321.75
2022-11-16T05:21:43.232Z,98317.44
2022-11-16T05:22:14.614Z,98320.94
2022-11-16T05:22:45.987Z,98317.44
2022-11-16T05:23:17.445Z,98320.16
2022-11-16T05:23:48.825Z,98325.59
2022-11-16T05:24:20.257Z,98325.59
2022-11-16T05:24:51.706Z,98326.41
2022-11-16T05:25:23.156Z,98324.81
2022-11-16T05:25:54.630Z,98322.09
2022-11-16T05:26:26.042Z,98320.47
2022-11-16T05:26:57.559Z,98320.94
2022-11-16T05:27:28.941Z,98324.47
2022-11-16T05:28:00.416Z,98319.34
2022-11-16T05:28:31.999Z,98322.88
2022-11-16T05:29:03.645Z,98328.00
2022-11-16T05:29:35.060Z,98315.50
2022-11-16T05:30:06.570Z,98320.94
2022-11-16T05:30:37.948Z,98322.88
2022-11-16T05:31:09.361Z,98328.31
2022-11-16T05:31:40.820Z,98329.13
2022-11-16T05:32:12.229Z,98329.13
2022-11-16T05:32:43.642Z,98326.41
2022-11-16T05:33:15.036Z,98324.81
2022-11-16T05:33:46.452Z,98332.97
2022-11-16T05:34:17.899Z,98329.47
2022-11-16T05:34:49.371Z,98329.13
2022-11-16T05:35:21.036Z,98329.13
2022-11-16T05:35:52.453Z,98328.31
2022-11-16T05:36:23.913Z,98341.16
2022-11-16T05:36:55.409Z,98333.78
2022-11-16T05:37:26.868Z,98337.31
2022-11-16T05:37:58.353Z,98330.25
2022-11-16T05:38:29.758Z,98331.84
2022-11-16T05:39:01.241Z,98340.84
2022-11-16T05:39:32.654Z,98336.50
2022-11-16T05:40:04.060Z,98331.84
2022-11-16T05:40:35.503Z,98336.50
2022-11-16T05:41:06.878Z,98334.56
2022-11-16T05:41:38.302Z,98343.88
2022-11-16T05:42:12.729Z,98337.31
2022-11-16T05:42:44.146Z,98340.84
2022-11-16T05:43:15.547Z,98338.91
2022-11-16T05:43:46.940Z,98342.75
2022-11-16T05:44:18.442Z,98333.44
2022-11-16T05:44:49.874Z,98334.56
2022-11-16T05:45:21.468Z,98344.69
2022-11-16T05:45:52.865Z,98333.78
2022-11-16T05:46:24.261Z,98345.47
2022-11-16T05:46:55.721Z,98340.34
2022-11-16T05:47:27.127Z,98342.75
2022-11-16T05:47:58.567Z,98337.31
2022-11-16T05:48:29.963Z,98341.16
2022-11-16T05:49:01.366Z,98341.97
2022-11-16T05:49:32.817Z,98338.91
2022-11-16T05:50:04.208Z,98342.75
2022-11-16T05:50:41.290Z,98349.00
2022-11-16T05:51:14.060Z,98343.56
2022-11-16T05:51:45.471Z,98348.22
2022-11-16T05:52:16.969Z,98351.72
2022-11-16T05:52:48.363Z,98349.81
2022-11-16T05:53:19.792Z,98349.00
2022-11-16T05:53:51.161Z,98343.56
2022-11-16T05:54:22.549Z,98347.41
2022-11-16T05:54:53.966Z,98343.56
2022-11-16T05:55:25.396Z,98345.47
2022-11-16T05:55:56.903Z,98350.13
2022-11-16T05:56:28.443Z,98352.53
2022-11-16T05:56:59.894Z,98341.97
2022-11-16T05:57:31.352Z,98347.41
2022-11-16T05:58:02.794Z,98345.47
2022-11-16T05:58:34.577Z,98350.94
2022-11-16T05:59:06.117Z,98346.28
2022-11-16T05:59:37.552Z,98348.22
2022-11-16T06:00:08.948Z,98350.13
2022-11-16T06:00:40.395Z,98341.16
2022-11-16T06:01:11.839Z,98343.09
2022-11-16T06:01:43.388Z,98349.00
2022-11-16T06:02:14.794Z,98340.34
2022-11-16T06:02:46.244Z,98346.59
2022-11-16T06:03:17.724Z,98351.72
2022-11-16T06:03:49.157Z,98342.75
2022-11-16T06:04:24.429Z,98346.59
2022-11-16T06:04:56.168Z,98348.22
2022-11-16T06:05:27.561Z,98346.59
2022-11-16T06:05:59.016Z,98350.94
2022-11-16T06:06:30.504Z,98341.97
2022-11-16T06:07:01.955Z,98346.59
2022-11-16T06:07:33.552Z,98351.25
2022-11-16T06:08:05.004Z,98351.25
2022-11-16T06:08:36.653Z,98357.50
2022-11-16T06:09:08.287Z,98350.78
2022-11-16T06:09:39.742Z,98356.72
2022-11-16T06:10:11.137Z,98357.50